createdAt,value
2017-04-16T00:00:07.828Z,0
2017-04-16T00:01:17.426Z,0
2017-04-16T00:02:27.181Z,0
2017-04-16T00:03:37.103Z,0
2017-04-16T00:04:46.706Z,0
2017-04-16T00:05:56.297Z,0
2017-04-16T00:07:06.072Z,0
2017-04-16T00:08:16.265Z,0
2017-04-16T00:09:25.869Z,0
2017-04-16T00:10:35.793Z,0
2017-04-16T00:11:46.402Z,0
2017-04-16T00:12:55.997Z,0
2017-04-16T00:14:05.441Z,0
2017-04-16T00:15:15.368Z,0
2017-04-16T00:16:25.331Z,0
2017-04-16T00:17:35.244Z,0
2017-04-16T00:18:45.138Z,0
2017-04-16T00:19:54.884Z,0
2017-04-16T00:21:04.794Z,0
2017-04-16T00:22:15.000Z,0
2017-04-16T00:23:24.906Z,0
2017-04-16T00:24:34.200Z,0
2017-04-16T00:25:44.564Z,0
2017-04-16T00:26:54.783Z,0
2017-04-16T00:28:04.704Z,0
2017-04-16T00:29:14.918Z,0
2017-04-16T00:30:25.151Z,0
2017-04-16T00:31:34.592Z,0
2017-04-16T00:32:44.518Z,0
2017-04-16T00:33:54.534Z,0
2017-04-16T00:35:04.637Z,0
2017-04-16T00:36:14.267Z,0
2017-04-16T00:37:24.032Z,0
2017-04-16T00:38:33.041Z,0
2017-04-16T00:39:43.276Z,0
2017-04-16T00:40:53.189Z,0
2017-04-16T00:42:02.803Z,0
2017-04-16T00:43:12.567Z,0
2017-04-16T00:44:22.487Z,0
2017-04-16T00:45:32.723Z,0
2017-04-16T00:46:42.992Z,0
2017-04-16T00:47:53.212Z,0
2017-04-16T00:49:03.268Z,0
2017-04-16T00:50:13.213Z,0
2017-04-16T00:51:23.112Z,0
2017-04-16T00:52:33.357Z,0
2017-04-16T00:53:43.278Z,0
2017-04-16T00:54:53.338Z,0
2017-04-16T00:56:03.242Z,0
2017-04-16T00:57:13.475Z,0
2017-04-16T00:58:23.390Z,0
2017-04-16T00:59:33.621Z,0
2017-04-16T01:00:43.695Z,0
2017-04-16T01:01:54.012Z,0
2017-04-16T01:03:03.922Z,0
2017-04-16T01:04:13.843Z,0
2017-04-16T01:05:23.892Z,0
2017-04-16T01:06:34.231Z,0
2017-04-16T01:07:44.175Z,0
2017-04-16T01:08:54.428Z,0
2017-04-16T01:10:04.359Z,0
2017-04-16T01:11:14.584Z,0
2017-04-16T01:12:24.933Z,0
2017-04-16T01:13:34.877Z,0
2017-04-16T01:14:44.483Z,0
2017-04-16T01:15:54.400Z,0
2017-04-16T01:17:04.346Z,0
2017-04-16T01:18:14.065Z,0
2017-04-16T01:19:24.015Z,0
2017-04-16T01:20:34.231Z,0
2017-04-16T01:21:44.442Z,0
2017-04-16T01:22:54.361Z,0
2017-04-16T01:24:04.455Z,0
2017-04-16T01:25:14.719Z,0
2017-04-16T01:26:24.642Z,0
2017-04-16T01:27:34.875Z,0
2017-04-16T01:28:44.170Z,0
2017-04-16T01:29:54.245Z,0
2017-04-16T01:31:04.163Z,0
2017-04-16T01:32:13.786Z,0
2017-04-16T01:33:23.700Z,0
2017-04-16T01:34:33.296Z,0
2017-04-16T01:35:43.487Z,0
2017-04-16T01:36:53.696Z,0
2017-04-16T01:38:04.340Z,0
2017-04-16T01:39:14.266Z,0
2017-04-16T01:40:24.478Z,0
2017-04-16T01:41:34.549Z,0
2017-04-16T01:42:44.447Z,0
2017-04-16T01:43:54.675Z,0
2017-04-16T01:45:04.296Z,0
2017-04-16T01:46:14.514Z,0
2017-04-16T01:47:24.583Z,0
2017-04-16T01:48:34.512Z,0
2017-04-16T01:49:44.751Z,0
2017-04-16T01:50:54.678Z,0
2017-04-16T01:52:04.907Z,0
2017-04-16T01:53:14.997Z,0
2017-04-16T01:54:24.604Z,0
2017-04-16T01:55:34.823Z,0
2017-04-16T01:56:44.423Z,0
2017-04-16T01:57:54.662Z,0
2017-04-16T01:59:04.726Z,0
2017-04-16T02:00:14.951Z,0
2017-04-16T02:01:24.892Z,0
2017-04-16T02:02:34.808Z,0
2017-04-16T02:03:45.040Z,0
2017-04-16T02:04:55.593Z,0
2017-04-16T02:06:05.508Z,0
2017-04-16T02:07:15.299Z,0
2017-04-16T02:08:24.961Z,0
2017-04-16T02:09:34.564Z,0
2017-04-16T02:10:44.326Z,0
2017-04-16T02:11:53.922Z,0
2017-04-16T02:13:03.847Z,0
2017-04-16T02:14:13.761Z,0
2017-04-16T02:15:23.979Z,0
2017-04-16T02:16:34.033Z,0
2017-04-16T02:17:43.975Z,0
2017-04-16T02:18:53.879Z,0
2017-04-16T02:20:03.801Z,0
2017-04-16T02:21:14.036Z,0
2017-04-16T02:22:24.173Z,0
2017-04-16T02:23:33.464Z,0
2017-04-16T02:24:43.688Z,0
2017-04-16T02:25:53.589Z,0
2017-04-16T02:27:03.785Z,0
2017-04-16T02:28:14.136Z,0
2017-04-16T02:29:24.347Z,0
2017-04-16T02:30:34.247Z,0
2017-04-16T02:31:44.448Z,0
2017-04-16T02:32:54.045Z,0
2017-04-16T02:34:04.100Z,0
2017-04-16T02:35:14.308Z,0
2017-04-16T02:36:23.910Z,0
2017-04-16T02:37:33.497Z,0
2017-04-16T02:38:43.538Z,0
2017-04-16T02:39:53.906Z,0
2017-04-16T02:41:03.812Z,0
2017-04-16T02:42:13.717Z,0
2017-04-16T02:43:23.626Z,0
2017-04-16T02:44:33.530Z,0
2017-04-16T02:45:43.630Z,0
2017-04-16T02:46:53.833Z,0
2017-04-16T02:48:03.736Z,0
2017-04-16T02:49:13.648Z,0
2017-04-16T02:50:23.552Z,0
2017-04-16T02:51:33.620Z,0
2017-04-16T02:52:43.835Z,0
2017-04-16T02:53:53.738Z,0
2017-04-16T02:55:03.333Z,0
2017-04-16T02:56:12.935Z,0
2017-04-16T02:57:23.296Z,0
2017-04-16T02:58:33.495Z,0
2017-04-16T02:59:43.394Z,0
2017-04-16T03:00:53.590Z,0
2017-04-16T03:02:03.520Z,0
2017-04-16T03:03:13.223Z,0
2017-04-16T03:04:23.432Z,0
2017-04-16T03:05:33.328Z,0
2017-04-16T03:06:43.538Z,0
2017-04-16T03:07:53.752Z,0
2017-04-16T03:09:03.452Z,0
2017-04-16T03:10:13.671Z,0
2017-04-16T03:11:23.664Z,0
2017-04-16T03:12:33.558Z,0
2017-04-16T03:13:43.172Z,0
2017-04-16T03:14:53.680Z,0
2017-04-16T03:16:02.996Z,0
2017-04-16T03:17:13.198Z,0
2017-04-16T03:18:23.413Z,0
2017-04-16T03:19:33.320Z,0
2017-04-16T03:20:43.617Z,0
2017-04-16T03:21:53.515Z,0
2017-04-16T03:23:03.727Z,0
2017-04-16T03:24:13.628Z,0
2017-04-16T03:25:23.837Z,0
2017-04-16T03:26:33.835Z,0
2017-04-16T03:27:43.727Z,0
2017-04-16T03:28:53.631Z,0
2017-04-16T03:30:03.524Z,0
2017-04-16T03:31:13.433Z,0
2017-04-16T03:32:22.888Z,0
2017-04-16T03:33:33.109Z,0
2017-04-16T03:34:43.018Z,0
2017-04-16T03:35:52.928Z,0
2017-04-16T03:37:02.217Z,0
2017-04-16T03:38:12.576Z,0
2017-04-16T03:39:21.856Z,0
2017-04-16T03:40:31.772Z,0
2017-04-16T03:41:41.986Z,0
2017-04-16T03:42:51.889Z,0
2017-04-16T03:44:01.648Z,0
2017-04-16T03:45:11.868Z,0
2017-04-16T03:46:21.769Z,0
2017-04-16T03:47:31.680Z,0
2017-04-16T03:48:41.935Z,0
2017-04-16T03:49:51.982Z,0
2017-04-16T03:51:01.877Z,0
2017-04-16T03:52:11.164Z,0
2017-04-16T03:53:21.081Z,0
2017-04-16T03:54:30.695Z,0
2017-04-16T03:55:40.759Z,0
2017-04-16T03:56:50.968Z,0
2017-04-16T03:58:00.866Z,0
2017-04-16T03:59:11.085Z,0
2017-04-16T04:00:20.985Z,0
2017-04-16T04:01:31.035Z,0
2017-04-16T04:02:40.634Z,0
2017-04-16T04:03:50.546Z,0
2017-04-16T04:05:00.466Z,0
2017-04-16T04:06:10.062Z,0
2017-04-16T04:07:20.433Z,0
2017-04-16T04:08:30.340Z,0
2017-04-16T04:09:40.238Z,0
2017-04-16T04:10:50.481Z,0
2017-04-16T04:12:00.389Z,0
2017-04-16T04:13:10.761Z,0
2017-04-16T04:14:20.689Z,0
2017-04-16T04:15:30.595Z,0
2017-04-16T04:16:40.504Z,0
2017-04-16T04:17:50.425Z,0
2017-04-16T04:19:00.479Z,0
2017-04-16T04:20:10.436Z,0
2017-04-16T04:21:20.736Z,0
2017-04-16T04:22:30.882Z,0
2017-04-16T04:23:41.105Z,0
2017-04-16T04:24:50.841Z,0
2017-04-16T04:26:00.436Z,0
2017-04-16T04:27:10.638Z,0
2017-04-16T04:28:20.252Z,0
2017-04-16T04:29:30.175Z,0
2017-04-16T04:30:39.615Z,0
2017-04-16T04:31:49.820Z,0
2017-04-16T04:32:59.717Z,0
2017-04-16T04:34:09.936Z,0
2017-04-16T04:35:19.831Z,0
2017-04-16T04:36:29.563Z,0
2017-04-16T04:37:39.162Z,0
2017-04-16T04:38:49.358Z,0
2017-04-16T04:39:59.574Z,0
2017-04-16T04:41:09.471Z,0
2017-04-16T04:42:19.518Z,0
2017-04-16T04:43:29.423Z,0
2017-04-16T04:44:39.336Z,0
2017-04-16T04:45:49.236Z,0
2017-04-16T04:46:58.530Z,0
2017-04-16T04:48:08.589Z,0
2017-04-16T04:49:17.873Z,0
2017-04-16T04:50:27.507Z,0
2017-04-16T04:51:38.520Z,0
2017-04-16T04:52:48.422Z,0
2017-04-16T04:53:58.470Z,0
2017-04-16T04:55:08.370Z,5
2017-04-16T04:56:18.285Z,5
2017-04-16T04:57:28.528Z,5
2017-04-16T04:58:38.603Z,5
2017-04-16T04:59:48.827Z,5
2017-04-16T05:00:57.810Z,5
2017-04-16T05:02:07.295Z,5
2017-04-16T05:03:17.189Z,5
2017-04-16T05:04:27.106Z,5
2017-04-16T05:05:37.420Z,5
2017-04-16T05:06:47.015Z,5
2017-04-16T05:07:56.922Z,5
2017-04-16T05:09:06.843Z,5
2017-04-16T05:10:16.743Z,5
2017-04-16T05:11:27.054Z,5
2017-04-16T05:12:36.957Z,5
2017-04-16T05:13:47.172Z,10
2017-04-16T05:14:57.077Z,10
2017-04-16T05:16:07.013Z,10
2017-04-16T05:17:17.011Z,10
2017-04-16T05:18:26.921Z,10
2017-04-16T05:19:36.817Z,10
2017-04-16T05:20:46.715Z,10
2017-04-16T05:21:56.310Z,10
2017-04-16T05:23:06.313Z,10
2017-04-16T05:24:16.516Z,10
2017-04-16T05:25:26.409Z,10
2017-04-16T05:26:36.645Z,10
2017-04-16T05:27:46.851Z,10
2017-04-16T05:28:56.889Z,10
2017-04-16T05:30:07.094Z,10
2017-04-16T05:31:16.690Z,10
2017-04-16T05:32:26.892Z,10
2017-04-16T05:33:37.319Z,15
2017-04-16T05:34:47.790Z,15
2017-04-16T05:35:57.991Z,15
2017-04-16T05:37:08.212Z,20
2017-04-16T05:38:17.811Z,20
2017-04-16T05:39:27.729Z,20
2017-04-16T05:40:37.780Z,20
2017-04-16T05:41:47.382Z,25
2017-04-16T05:42:57.590Z,25
2017-04-16T05:44:07.497Z,25
2017-04-16T05:45:17.097Z,25
2017-04-16T05:46:27.447Z,25
2017-04-16T05:47:37.655Z,20
2017-04-16T05:48:47.556Z,25
2017-04-16T05:49:57.760Z,25
2017-04-16T05:51:07.985Z,30
2017-04-16T05:52:18.346Z,30
2017-04-16T05:53:28.242Z,25
2017-04-16T05:54:38.152Z,20
2017-04-16T05:55:48.362Z,20
2017-04-16T05:56:58.280Z,20
2017-04-16T05:58:08.665Z,20
2017-04-16T05:59:18.866Z,25
2017-04-16T06:00:28.764Z,30
2017-04-16T06:01:38.985Z,30
2017-04-16T06:02:49.202Z,35
2017-04-16T06:03:59.586Z,30
2017-04-16T06:05:09.175Z,30
2017-04-16T06:06:19.099Z,35
2017-04-16T06:07:28.994Z,35
2017-04-16T06:08:38.903Z,40
2017-04-16T06:09:49.268Z,40
2017-04-16T06:10:59.174Z,40
2017-04-16T06:12:08.764Z,45
2017-04-16T06:13:18.372Z,45
2017-04-16T06:14:28.395Z,50
2017-04-16T06:15:38.490Z,50
2017-04-16T06:16:48.099Z,55
2017-04-16T06:17:58.360Z,50
2017-04-16T06:19:08.276Z,50
2017-04-16T06:20:18.180Z,55
2017-04-16T06:21:28.236Z,55
2017-04-16T06:22:37.831Z,50
2017-04-16T06:23:48.071Z,50
2017-04-16T06:24:57.972Z,50
2017-04-16T06:26:08.189Z,55
2017-04-16T06:27:18.245Z,50
2017-04-16T06:28:28.454Z,50
2017-04-16T06:29:38.365Z,50
2017-04-16T06:30:48.270Z,45
2017-04-16T06:31:57.872Z,45
2017-04-16T06:33:08.230Z,40
2017-04-16T06:34:18.447Z,40
2017-04-16T06:35:28.342Z,40
2017-04-16T06:36:37.943Z,35
2017-04-16T06:37:47.863Z,35
2017-04-16T06:38:57.669Z,35
2017-04-16T06:40:07.567Z,40
2017-04-16T06:41:17.497Z,40
2017-04-16T06:42:27.102Z,45
2017-04-16T06:43:37.315Z,50
2017-04-16T06:44:47.367Z,50
2017-04-16T06:45:57.270Z,50
2017-04-16T06:47:07.171Z,50
2017-04-16T06:48:17.369Z,50
2017-04-16T06:49:27.581Z,60
2017-04-16T06:50:37.633Z,65
2017-04-16T06:51:47.532Z,75
2017-04-16T06:52:57.744Z,80
2017-04-16T06:54:07.355Z,85
2017-04-16T06:55:17.254Z,90
2017-04-16T06:56:26.686Z,95
2017-04-16T06:57:36.616Z,100
2017-04-16T06:58:46.824Z,100
2017-04-16T06:59:57.045Z,100
2017-04-16T07:01:06.947Z,100
2017-04-16T07:02:16.693Z,95
2017-04-16T07:03:26.689Z,95
2017-04-16T07:04:37.139Z,95
2017-04-16T07:05:47.048Z,100
2017-04-16T07:06:57.242Z,100
2017-04-16T07:08:07.291Z,100
2017-04-16T07:09:17.194Z,100
2017-04-16T07:10:26.784Z,105
2017-04-16T07:11:36.438Z,105
2017-04-16T07:12:45.765Z,105
2017-04-16T07:13:55.775Z,100
2017-04-16T07:15:05.664Z,100
2017-04-16T07:16:15.582Z,95
2017-04-16T07:17:25.480Z,95
2017-04-16T07:18:35.469Z,95
2017-04-16T07:19:45.004Z,90
2017-04-16T07:20:55.046Z,85
2017-04-16T07:22:05.068Z,85
2017-04-16T07:23:15.708Z,100
2017-04-16T07:24:26.422Z,100
2017-04-16T07:25:36.954Z,110
2017-04-16T07:26:47.262Z,105
2017-04-16T07:27:57.865Z,105
2017-04-16T07:29:08.480Z,105
2017-04-16T07:30:18.712Z,110
2017-04-16T07:31:28.479Z,110
2017-04-16T07:32:37.793Z,115
2017-04-16T07:33:48.039Z,115
2017-04-16T07:34:57.945Z,110
2017-04-16T07:36:07.545Z,110
2017-04-16T07:37:16.642Z,110
2017-04-16T07:38:26.570Z,125
2017-04-16T07:39:36.788Z,140
2017-04-16T07:40:47.018Z,140
2017-04-16T07:41:56.926Z,240
2017-04-16T07:43:07.687Z,110
2017-04-16T07:44:17.592Z,115
2017-04-16T07:45:27.800Z,125
2017-04-16T07:46:38.019Z,245
2017-04-16T07:47:47.932Z,85
2017-04-16T07:48:58.302Z,65
2017-04-16T07:50:08.215Z,55
2017-04-16T07:51:17.815Z,60
2017-04-16T07:52:27.723Z,80
2017-04-16T07:53:37.960Z,85
2017-04-16T07:54:48.019Z,85
2017-04-16T07:55:58.272Z,235
2017-04-16T07:57:07.893Z,125
2017-04-16T07:58:17.826Z,125
2017-04-16T07:59:28.044Z,110
2017-04-16T08:00:37.813Z,105
2017-04-16T08:01:47.430Z,135
2017-04-16T08:02:57.670Z,145
2017-04-16T08:04:07.597Z,135
2017-04-16T08:05:17.848Z,120
2017-04-16T08:06:28.231Z,100
2017-04-16T08:07:38.484Z,90
2017-04-16T08:08:48.403Z,90
2017-04-16T08:09:58.318Z,95
2017-04-16T08:11:08.532Z,90
2017-04-16T08:12:17.982Z,90
2017-04-16T08:13:28.211Z,90
2017-04-16T08:14:38.465Z,105
2017-04-16T08:15:48.688Z,120
2017-04-16T08:16:58.917Z,110
2017-04-16T08:18:09.305Z,120
2017-04-16T08:19:19.249Z,95
2017-04-16T08:20:29.184Z,90
2017-04-16T08:21:39.393Z,70
2017-04-16T08:22:49.007Z,55
2017-04-16T08:23:59.379Z,40
2017-04-16T08:25:09.292Z,50
2017-04-16T08:26:19.636Z,50
2017-04-16T08:27:29.851Z,70
2017-04-16T08:28:40.135Z,85
2017-04-16T08:29:49.896Z,90
2017-04-16T08:30:59.814Z,65
2017-04-16T08:32:09.799Z,60
2017-04-16T08:33:19.864Z,55
2017-04-16T08:34:30.086Z,55
2017-04-16T08:35:39.851Z,60
2017-04-16T08:36:49.755Z,80
2017-04-16T08:37:59.072Z,100
2017-04-16T08:39:09.291Z,80
2017-04-16T08:40:19.232Z,65
2017-04-16T08:41:29.302Z,75
2017-04-16T08:42:38.906Z,110
2017-04-16T08:43:48.842Z,110
2017-04-16T08:44:58.781Z,115
2017-04-16T08:46:08.381Z,115
2017-04-16T08:47:18.453Z,105
2017-04-16T08:48:28.687Z,100
2017-04-16T08:49:38.302Z,115
2017-04-16T08:50:47.636Z,100
2017-04-16T08:51:57.248Z,85
2017-04-16T08:53:07.624Z,85
2017-04-16T08:54:17.889Z,85
2017-04-16T08:55:27.801Z,80
2017-04-16T08:56:38.017Z,75
2017-04-16T08:57:48.231Z,75
2017-04-16T08:58:58.613Z,70
2017-04-16T09:00:08.516Z,55
2017-04-16T09:01:18.117Z,65
2017-04-16T09:02:28.362Z,90
2017-04-16T09:03:38.618Z,95
2017-04-16T09:04:48.691Z,75
2017-04-16T09:05:58.301Z,80
2017-04-16T09:07:08.525Z,60
2017-04-16T09:08:18.443Z,35
2017-04-16T09:09:28.351Z,40
2017-04-16T09:10:38.728Z,60
2017-04-16T09:11:48.643Z,80
2017-04-16T09:12:58.854Z,80
2017-04-16T09:14:08.469Z,85
2017-04-16T09:15:18.964Z,85
2017-04-16T09:16:29.403Z,100
2017-04-16T09:17:39.647Z,105
2017-04-16T09:18:49.608Z,90
2017-04-16T09:19:59.819Z,80
2017-04-16T09:21:09.728Z,75
2017-04-16T09:22:19.433Z,90
2017-04-16T09:23:29.656Z,90
2017-04-16T09:24:39.874Z,90
2017-04-16T09:25:50.100Z,90
2017-04-16T09:27:00.338Z,80
2017-04-16T09:28:10.653Z,85
2017-04-16T09:29:20.858Z,80
2017-04-16T09:30:30.814Z,90
2017-04-16T09:31:41.027Z,95
2017-04-16T09:32:50.324Z,95
2017-04-16T09:34:00.702Z,100
2017-04-16T09:35:10.244Z,75
2017-04-16T09:36:20.685Z,70
2017-04-16T09:37:30.302Z,75
2017-04-16T09:38:40.797Z,85
2017-04-16T09:39:50.637Z,85
2017-04-16T09:41:01.250Z,90
2017-04-16T09:42:11.174Z,90
2017-04-16T09:43:21.111Z,95
2017-04-16T09:44:31.099Z,100
2017-04-16T09:45:41.183Z,105
2017-04-16T09:46:51.653Z,105
2017-04-16T09:48:01.450Z,100
2017-04-16T09:49:11.440Z,85
2017-04-16T09:50:21.305Z,80
2017-04-16T09:51:32.518Z,75
2017-04-16T09:52:42.727Z,70
2017-04-16T09:53:52.946Z,60
2017-04-16T09:55:03.591Z,50
2017-04-16T09:56:13.506Z,35
2017-04-16T09:57:24.129Z,25
2017-04-16T09:58:36.139Z,25
2017-04-16T09:59:46.538Z,20
2017-04-16T10:00:57.191Z,20
2017-04-16T10:02:06.803Z,20
2017-04-16T10:03:16.670Z,25
2017-04-16T10:04:26.926Z,40
2017-04-16T10:05:36.837Z,45
2017-04-16T10:06:47.423Z,45
2017-04-16T10:07:58.050Z,45
2017-04-16T10:09:08.086Z,50
2017-04-16T10:10:18.427Z,50
2017-04-16T10:11:28.061Z,55
2017-04-16T10:12:38.415Z,55
2017-04-16T10:13:48.024Z,55
2017-04-16T10:14:58.383Z,55
2017-04-16T10:16:07.683Z,60
2017-04-16T10:17:17.390Z,60
2017-04-16T10:18:27.612Z,65
2017-04-16T10:19:37.518Z,65
2017-04-16T10:20:46.973Z,65
2017-04-16T10:21:57.182Z,65
2017-04-16T10:23:07.653Z,60
2017-04-16T10:24:17.324Z,60
2017-04-16T10:25:27.554Z,55
2017-04-16T10:26:37.695Z,55
2017-04-16T10:27:48.871Z,55
2017-04-16T10:28:59.667Z,55
2017-04-16T10:30:09.636Z,60
2017-04-16T10:31:19.538Z,65
2017-04-16T10:32:29.070Z,65
2017-04-16T10:33:38.670Z,60
2017-04-16T10:34:48.849Z,55
2017-04-16T10:35:58.497Z,55
2017-04-16T10:37:09.112Z,55
2017-04-16T10:38:19.521Z,55
2017-04-16T10:39:29.440Z,50
2017-04-16T10:40:39.711Z,50
2017-04-16T10:41:49.313Z,45
2017-04-16T10:42:59.573Z,40
2017-04-16T10:44:10.039Z,30
2017-04-16T10:45:19.920Z,25
2017-04-16T10:46:29.836Z,20
2017-04-16T10:47:39.775Z,20
2017-04-16T10:48:49.708Z,25
2017-04-16T10:50:00.059Z,25
2017-04-16T10:51:10.279Z,25
2017-04-16T10:52:20.209Z,30
2017-04-16T10:53:30.106Z,30
2017-04-16T10:54:40.730Z,35
2017-04-16T10:55:51.078Z,40
2017-04-16T10:57:01.343Z,45
2017-04-16T10:58:11.291Z,50
2017-04-16T10:59:22.103Z,55
2017-04-16T11:00:32.021Z,60
2017-04-16T11:01:42.492Z,60
2017-04-16T11:02:52.438Z,60
2017-04-16T11:04:02.082Z,65
2017-04-16T11:05:12.318Z,70
2017-04-16T11:06:21.689Z,70
2017-04-16T11:07:31.751Z,70
2017-04-16T11:08:41.998Z,65
2017-04-16T11:09:52.210Z,65
2017-04-16T11:11:02.422Z,70
2017-04-16T11:12:12.638Z,75
2017-04-16T11:13:22.391Z,70
2017-04-16T11:14:32.291Z,75
2017-04-16T11:15:42.207Z,80
2017-04-16T11:16:52.436Z,80
2017-04-16T11:18:02.679Z,85
2017-04-16T11:19:13.037Z,90
2017-04-16T11:20:22.657Z,90
2017-04-16T11:21:32.269Z,80
2017-04-16T11:22:42.557Z,75
2017-04-16T11:23:52.796Z,70
2017-04-16T11:25:02.260Z,65
2017-04-16T11:26:11.859Z,65
2017-04-16T11:27:21.983Z,60
2017-04-16T11:28:32.271Z,60
2017-04-16T11:29:42.057Z,65
2017-04-16T11:30:52.185Z,65
2017-04-16T11:32:02.212Z,75
2017-04-16T11:33:12.138Z,75
2017-04-16T11:34:22.403Z,70
2017-04-16T11:35:32.365Z,60
2017-04-16T11:36:42.436Z,50
2017-04-16T11:37:52.672Z,45
2017-04-16T11:39:02.588Z,45
2017-04-16T11:40:12.204Z,50
2017-04-16T11:41:22.406Z,50
2017-04-16T11:42:32.410Z,45
2017-04-16T11:43:42.347Z,25
2017-04-16T11:44:52.570Z,15
2017-04-16T11:46:02.203Z,15
2017-04-16T11:47:12.150Z,20
2017-04-16T11:48:22.244Z,25
2017-04-16T11:49:32.159Z,35
2017-04-16T11:50:42.412Z,45
2017-04-16T11:51:52.026Z,50
2017-04-16T11:53:02.256Z,60
2017-04-16T11:54:11.716Z,65
2017-04-16T11:55:21.953Z,60
2017-04-16T11:56:31.608Z,45
2017-04-16T11:57:41.876Z,30
2017-04-16T11:58:51.811Z,20
2017-04-16T12:00:01.578Z,15
2017-04-16T12:01:11.546Z,10
2017-04-16T12:02:21.608Z,10
2017-04-16T12:03:31.668Z,10
2017-04-16T12:04:41.897Z,15
2017-04-16T12:05:51.982Z,15
2017-04-16T12:07:02.207Z,15
2017-04-16T12:08:12.450Z,15
2017-04-16T12:09:22.719Z,20
2017-04-16T12:10:32.648Z,20
2017-04-16T12:11:42.454Z,25
2017-04-16T12:12:52.684Z,30
2017-04-16T12:14:02.658Z,30
2017-04-16T12:15:12.595Z,35
2017-04-16T12:16:22.523Z,35
2017-04-16T12:17:32.477Z,30
2017-04-16T12:18:42.749Z,30
2017-04-16T12:19:52.975Z,35
2017-04-16T12:21:03.229Z,40
2017-04-16T12:22:12.872Z,45
2017-04-16T12:23:23.237Z,45
2017-04-16T12:24:32.541Z,50
2017-04-16T12:25:42.179Z,50
2017-04-16T12:26:51.801Z,50
2017-04-16T12:28:02.031Z,50
2017-04-16T12:29:11.800Z,50
2017-04-16T12:30:22.048Z,50
2017-04-16T12:31:32.293Z,50
2017-04-16T12:32:42.226Z,45
2017-04-16T12:33:52.458Z,45
2017-04-16T12:35:02.859Z,40
2017-04-16T12:36:12.950Z,40
2017-04-16T12:37:22.562Z,40
2017-04-16T12:38:32.923Z,40
2017-04-16T12:39:43.047Z,40
2017-04-16T12:40:53.163Z,40
2017-04-16T12:42:03.540Z,40
2017-04-16T12:43:13.763Z,40
2017-04-16T12:44:23.400Z,40
2017-04-16T12:45:33.495Z,45
2017-04-16T12:46:43.932Z,50
2017-04-16T12:47:54.161Z,55
2017-04-16T12:49:04.463Z,60
2017-04-16T12:50:14.812Z,65
2017-04-16T12:51:25.457Z,65
2017-04-16T12:52:35.537Z,70
2017-04-16T12:53:45.141Z,70
2017-04-16T12:54:55.155Z,70
2017-04-16T12:56:04.833Z,65
2017-04-16T12:57:15.469Z,65
2017-04-16T12:58:25.843Z,65
2017-04-16T12:59:36.136Z,60
2017-04-16T13:00:45.728Z,70
2017-04-16T13:01:55.337Z,75
2017-04-16T13:03:05.631Z,65
2017-04-16T13:04:15.868Z,50
2017-04-16T13:05:25.184Z,40
2017-04-16T13:06:35.408Z,30
2017-04-16T13:07:45.339Z,15
2017-04-16T13:08:55.251Z,10
2017-04-16T13:10:05.654Z,5
2017-04-16T13:11:15.772Z,0
2017-04-16T13:12:25.649Z,0
2017-04-16T13:13:35.905Z,0
2017-04-16T13:14:45.248Z,5
2017-04-16T13:15:55.566Z,5
2017-04-16T13:17:06.170Z,5
2017-04-16T13:18:17.068Z,5
2017-04-16T13:19:27.516Z,5
2017-04-16T13:20:37.996Z,10
2017-04-16T13:21:47.804Z,10
2017-04-16T13:22:57.420Z,15
2017-04-16T13:24:07.433Z,15
2017-04-16T13:25:18.065Z,20
2017-04-16T13:26:28.052Z,30
2017-04-16T13:27:37.747Z,35
2017-04-16T13:28:47.729Z,45
2017-04-16T13:29:57.965Z,50
2017-04-16T13:31:07.325Z,50
2017-04-16T13:32:16.629Z,45
2017-04-16T13:33:26.571Z,45
2017-04-16T13:34:36.799Z,45
2017-04-16T13:35:47.085Z,50
2017-04-16T13:36:56.694Z,55
2017-04-16T13:38:06.903Z,55
2017-04-16T13:39:17.237Z,55
2017-04-16T13:40:26.844Z,50
2017-04-16T13:41:36.755Z,45
2017-04-16T13:42:46.752Z,40
2017-04-16T13:43:57.357Z,40
2017-04-16T13:45:07.735Z,35
2017-04-16T13:46:18.333Z,30
2017-04-16T13:47:28.649Z,25
2017-04-16T13:48:38.939Z,20
2017-04-16T13:49:49.468Z,15
2017-04-16T13:50:59.551Z,10
2017-04-16T13:52:09.180Z,10
2017-04-16T13:53:19.651Z,15
2017-04-16T13:54:29.304Z,20
2017-04-16T13:55:39.986Z,20
2017-04-16T13:56:50.467Z,20
2017-04-16T13:58:00.069Z,20
2017-04-16T13:59:09.689Z,20
2017-04-16T14:00:20.191Z,20
2017-04-16T14:01:29.865Z,20
2017-04-16T14:02:39.693Z,20
2017-04-16T14:03:50.012Z,15
2017-04-16T14:04:59.931Z,15
2017-04-16T14:06:10.207Z,15
2017-04-16T14:07:20.800Z,15
2017-04-16T14:08:30.868Z,15
2017-04-16T14:09:40.481Z,15
2017-04-16T14:10:50.387Z,15
2017-04-16T14:12:00.311Z,15
2017-04-16T14:13:10.235Z,15
2017-04-16T14:14:21.123Z,15
2017-04-16T14:15:31.332Z,15
2017-04-16T14:16:40.939Z,15
2017-04-16T14:17:51.231Z,15
2017-04-16T14:19:00.851Z,15
2017-04-16T14:20:10.666Z,15
2017-04-16T14:21:21.122Z,15
2017-04-16T14:22:31.054Z,15
2017-04-16T14:23:40.411Z,20
2017-04-16T14:24:50.714Z,20
2017-04-16T14:26:00.863Z,20
2017-04-16T14:27:11.660Z,20
2017-04-16T14:28:20.950Z,20
2017-04-16T14:29:31.570Z,20
2017-04-16T14:30:41.465Z,25
2017-04-16T14:31:51.203Z,25
2017-04-16T14:33:01.828Z,25
2017-04-16T14:34:11.535Z,30
2017-04-16T14:35:21.768Z,30
2017-04-16T14:36:31.677Z,30
2017-04-16T14:37:41.717Z,30
2017-04-16T14:38:51.403Z,35
2017-04-16T14:40:00.770Z,35
2017-04-16T14:41:10.762Z,40
2017-04-16T14:42:20.733Z,45
2017-04-16T14:43:30.558Z,45
2017-04-16T14:44:40.776Z,50
2017-04-16T14:45:51.236Z,50
2017-04-16T14:47:01.224Z,50
2017-04-16T14:48:11.213Z,50
2017-04-16T14:49:21.665Z,50
2017-04-16T14:50:31.817Z,55
2017-04-16T14:51:41.499Z,55
2017-04-16T14:52:51.491Z,50
2017-04-16T14:54:01.411Z,45
2017-04-16T14:55:12.157Z,45
2017-04-16T14:56:22.148Z,40
2017-04-16T14:57:32.378Z,40
2017-04-16T14:58:42.577Z,40
2017-04-16T14:59:52.793Z,40
2017-04-16T15:01:02.539Z,40
2017-04-16T15:02:12.761Z,45
2017-04-16T15:03:22.693Z,45
2017-04-16T15:04:33.180Z,45
2017-04-16T15:05:43.815Z,45
2017-04-16T15:06:53.652Z,40
2017-04-16T15:08:02.943Z,35
2017-04-16T15:09:12.864Z,30
2017-04-16T15:10:22.768Z,30
2017-04-16T15:11:32.703Z,30
2017-04-16T15:12:42.861Z,35
2017-04-16T15:13:53.074Z,35
2017-04-16T15:15:02.676Z,40
2017-04-16T15:16:12.570Z,40
2017-04-16T15:17:22.170Z,40
2017-04-16T15:18:32.174Z,35
2017-04-16T15:19:42.402Z,35
2017-04-16T15:20:52.320Z,30
2017-04-16T15:22:01.948Z,30
2017-04-16T15:23:11.864Z,35
2017-04-16T15:24:22.193Z,35
2017-04-16T15:25:32.100Z,30
2017-04-16T15:26:42.327Z,30
2017-04-16T15:27:52.227Z,25
2017-04-16T15:29:02.129Z,25
2017-04-16T15:30:12.441Z,20
2017-04-16T15:31:22.350Z,15
2017-04-16T15:32:32.627Z,10
2017-04-16T15:33:42.544Z,10
2017-04-16T15:34:52.762Z,10
2017-04-16T15:36:03.074Z,10
2017-04-16T15:37:12.672Z,10
2017-04-16T15:38:22.880Z,10
2017-04-16T15:39:32.817Z,10
2017-04-16T15:40:42.721Z,10
2017-04-16T15:41:52.795Z,15
2017-04-16T15:43:02.701Z,25
2017-04-16T15:44:12.914Z,35
2017-04-16T15:45:22.835Z,40
2017-04-16T15:46:32.757Z,35
2017-04-16T15:47:42.812Z,45
2017-04-16T15:48:52.753Z,45
2017-04-16T15:50:02.371Z,45
2017-04-16T15:51:12.563Z,40
2017-04-16T15:52:22.532Z,30
2017-04-16T15:53:32.942Z,30
2017-04-16T15:54:42.852Z,25
2017-04-16T15:55:52.762Z,25
2017-04-16T15:57:02.351Z,20
2017-04-16T15:58:12.239Z,15
2017-04-16T15:59:22.611Z,15
2017-04-16T16:00:32.518Z,15
2017-04-16T16:01:42.745Z,15
2017-04-16T16:02:52.964Z,15
2017-04-16T16:04:02.863Z,15
2017-04-16T16:05:12.913Z,15
2017-04-16T16:06:22.821Z,20
2017-04-16T16:07:33.034Z,20
2017-04-16T16:08:42.958Z,20
2017-04-16T16:09:53.185Z,20
2017-04-16T16:11:02.929Z,20
2017-04-16T16:12:12.537Z,20
2017-04-16T16:13:22.137Z,20
2017-04-16T16:14:32.053Z,20
2017-04-16T16:15:42.707Z,25
2017-04-16T16:16:53.055Z,25
2017-04-16T16:18:03.777Z,25
2017-04-16T16:19:13.649Z,25
2017-04-16T16:20:23.243Z,25
2017-04-16T16:21:32.843Z,25
2017-04-16T16:22:43.686Z,25
2017-04-16T16:23:54.137Z,25
2017-04-16T16:25:04.057Z,20
2017-04-16T16:26:14.354Z,20
2017-04-16T16:27:24.684Z,20
2017-04-16T16:28:35.046Z,20
2017-04-16T16:29:45.824Z,20
2017-04-16T16:30:56.032Z,20
2017-04-16T16:32:06.425Z,20
2017-04-16T16:33:16.645Z,20
2017-04-16T16:34:26.644Z,20
2017-04-16T16:35:35.938Z,20
2017-04-16T16:36:45.238Z,15
2017-04-16T16:37:55.132Z,10
2017-04-16T16:39:05.446Z,10
2017-04-16T16:40:15.810Z,5
2017-04-16T16:41:25.430Z,5
2017-04-16T16:42:35.329Z,10
2017-04-16T16:43:44.956Z,10
2017-04-16T16:44:55.540Z,10
2017-04-16T16:46:06.021Z,15
2017-04-16T16:47:16.258Z,15